sensor_id;sensor_type;location;lat;lon;timestamp;pressure;altitude;pressure_sealevel;temperature;humidity
56392;BME280;42289;53.582;9.714;2022-12-04T00:02:10;101925.84;;;-0.97;100.00
56392;BME280;42289;53.582;9.714;2022-12-04T00:04:36;101921.34;;;-1.08;100.00
56392;BME280;42289;53.582;9.714;2022-12-04T00:07:04;101927.50;;;-0.99;100.00
56392;BME280;42289;53.582;9.714;2022-12-04T00:09:31;101926.25;;;-1.14;100.00
56392;BME280;42289;53.582;9.714;2022-12-04T00:11:57;101920.47;;;-1.07;100.00
56392;BME280;42289;53.582;9.714;2022-12-04T00:14:25;101918.91;;;-1.02;100.00
56392;BME280;42289;53.582;9.714;2022-12-04T00:16:51;101918.88;;;-1.03;100.00
56392;BME280;42289;53.582;9.714;2022-12-04T00:19:18;101919.84;;;-0.99;100.00
56392;BME280;42289;53.582;9.714;2022-12-04T00:21:44;101921.47;;;-1.02;100.00
56392;BME280;42289;53.582;9.714;2022-12-04T00:24:11;101924.78;;;-1.06;100.00
56392;BME280;42289;53.582;9.714;2022-12-04T00:26:37;101929.91;;;-1.04;100.00
56392;BME280;42289;53.582;9.714;2022-12-04T00:29:04;101926.50;;;-1.05;100.00
56392;BME280;42289;53.582;9.714;2022-12-04T00:31:32;101925.66;;;-1.05;100.00
56392;BME280;42289;53.582;9.714;2022-12-04T00:33:59;101923.09;;;-1.05;100.00
56392;BME280;42289;53.582;9.714;2022-12-04T00:36:27;101931.78;;;-0.98;100.00
56392;BME280;42289;53.582;9.714;2022-12-04T00:38:54;101929.31;;;-0.95;100.00
56392;BME280;42289;53.582;9.714;2022-12-04T00:41:22;101925.09;;;-0.93;100.00
56392;BME280;42289;53.582;9.714;2022-12-04T00:43:49;101924.22;;;-0.95;100.00
56392;BME280;42289;53.582;9.714;2022-12-04T00:46:16;101929.38;;;-0.92;100.00
56392;BME280;42289;53.582;9.714;2022-12-04T00:48:45;101920.00;;;-0.93;100.00
56392;BME280;42289;53.582;9.714;2022-12-04T00:51:13;101926.97;;;-0.88;100.00
56392;BME280;42289;53.582;9.714;2022-12-04T00:53:41;101926.78;;;-0.94;100.00
56392;BME280;42289;53.582;9.714;2022-12-04T00:56:15;101921.25;;;-0.77;100.00
56392;BME280;42289;53.582;9.714;2022-12-04T00:58:42;101923.47;;;-0.91;100.00
56392;BME280;42289;53.582;9.714;2022-12-04T01:01:10;101920.72;;;-0.97;100.00
56392;BME280;42289;53.582;9.714;2022-12-04T01:03:37;101917.63;;;-0.87;100.00
56392;BME280;42289;53.582;9.714;2022-12-04T01:06:06;101920.19;;;-0.86;100.00
56392;BME280;42289;53.582;9.714;2022-12-04T01:08:33;101919.59;;;-0.77;100.00
56392;BME280;42289;53.582;9.714;2022-12-04T01:11:04;101915.16;;;-0.82;100.00
56392;BME280;42289;53.582;9.714;2022-12-04T01:13:31;101907.44;;;-0.86;100.00
56392;BME280;42289;53.582;9.714;2022-12-04T01:15:57;101910.78;;;-0.88;100.00
56392;BME280;42289;53.582;9.714;2022-12-04T01:18:23;101919.41;;;-0.83;100.00
56392;BME280;42289;53.582;9.714;2022-12-04T01:20:51;101916.69;;;-0.89;100.00
56392;BME280;42289;53.582;9.714;2022-12-04T01:23:19;101920.16;;;-0.87;100.00
56392;BME280;42289;53.582;9.714;2022-12-04T01:25:49;101917.63;;;-0.87;100.00
56392;BME280;42289;53.582;9.714;2022-12-04T01:28:16;101910.00;;;-0.86;100.00
56392;BME280;42289;53.582;9.714;2022-12-04T01:30:43;101914.09;;;-0.91;100.00
56392;BME280;42289;53.582;9.714;2022-12-04T01:33:09;101905.59;;;-0.91;100.00
56392;BME280;42289;53.582;9.714;2022-12-04T01:35:35;101904.88;;;-0.86;100.00
56392;BME280;42289;53.582;9.714;2022-12-04T01:38:02;101906.72;;;-0.80;100.00
56392;BME280;42289;53.582;9.714;2022-12-04T01:40:30;101911.66;;;-0.88;100.00
56392;BME280;42289;53.582;9.714;2022-12-04T01:42:58;101906.66;;;-0.83;100.00
56392;BME280;42289;53.582;9.714;2022-12-04T01:45:38;101902.53;;;-0.78;100.00
56392;BME280;42289;53.582;9.714;2022-12-04T01:48:10;101906.63;;;-0.85;100.00
56392;BME280;42289;53.582;9.714;2022-12-04T01:50:39;101906.72;;;-0.80;100.00
56392;BME280;42289;53.582;9.714;2022-12-04T01:53:06;101901.38;;;-0.89;100.00
56392;BME280;42289;53.582;9.714;2022-12-04T01:55:34;101901.66;;;-0.78;100.00
56392;BME280;42289;53.582;9.714;2022-12-04T01:58:01;101905.13;;;-0.76;100.00
56392;BME280;42289;53.582;9.714;2022-12-04T02:00:28;101904.09;;;-0.83;100.00
56392;BME280;42289;53.582;9.714;2022-12-04T02:02:55;101901.59;;;-0.81;100.00
56392;BME280;42289;53.582;9.714;2022-12-04T02:05:22;101909.91;;;-0.89;100.00
56392;BME280;42289;53.582;9.714;2022-12-04T02:07:51;101914.28;;;-0.85;100.00
56392;BME280;42289;53.582;9.714;2022-12-04T02:10:22;101916.06;;;-0.82;100.00
56392;BME280;42289;53.582;9.714;2022-12-04T02:12:57;101915.44;;;-0.72;100.00
56392;BME280;42289;53.582;9.714;2022-12-04T02:15:33;101912.88;;;-0.72;100.00
56392;BME280;42289;53.582;9.714;2022-12-04T02:18:04;101912.78;;;-0.76;100.00
56392;BME280;42289;53.582;9.714;2022-12-04T02:20:37;101901.00;;;-0.71;100.00
56392;BME280;42289;53.582;9.714;2022-12-04T02:23:24;101900.94;;;-0.74;100.00
56392;BME280;42289;53.582;9.714;2022-12-04T02:26:00;101893.28;;;-0.74;100.00
56392;BME280;42289;53.582;9.714;2022-12-04T02:28:37;101896.66;;;-0.75;100.00
56392;BME280;42289;53.582;9.714;2022-12-04T02:31:10;101888.97;;;-0.77;100.00
56392;BME280;42289;53.582;9.714;2022-12-04T02:33:43;101884.81;;;-0.72;100.00
56392;BME280;42289;53.582;9.714;2022-12-04T02:36:18;101886.44;;;-0.75;100.00
56392;BME280;42289;53.582;9.714;2022-12-04T02:38:50;101887.44;;;-0.70;100.00
56392;BME280;42289;53.582;9.714;2022-12-04T02:41:21;101885.66;;;-0.73;100.00
56392;BME280;42289;53.582;9.714;2022-12-04T02:43:53;101881.59;;;-0.64;100.00
56392;BME280;42289;53.582;9.714;2022-12-04T02:46:26;101886.59;;;-0.68;100.00
56392;BME280;42289;53.582;9.714;2022-12-04T02:48:57;101887.69;;;-0.59;100.00
56392;BME280;42289;53.582;9.714;2022-12-04T02:51:27;101888.00;;;-0.47;100.00
56392;BME280;42289;53.582;9.714;2022-12-04T02:54:00;101886.59;;;-0.68;100.00
56392;BME280;42289;53.582;9.714;2022-12-04T02:56:30;101878.94;;;-0.68;100.00
56392;BME280;42289;53.582;9.714;2022-12-04T02:59:02;101882.41;;;-0.65;100.00
56392;BME280;42289;53.582;9.714;2022-12-04T03:01:33;101881.78;;;-0.57;100.00
56392;BME280;42289;53.582;9.714;2022-12-04T03:04:03;101881.56;;;-0.66;100.00
56392;BME280;42289;53.582;9.714;2022-12-04T03:06:34;101882.22;;;-0.73;100.00
56392;BME280;42289;53.582;9.714;2022-12-04T03:09:06;101880.84;;;-0.60;100.00
56392;BME280;42289;53.582;9.714;2022-12-04T03:11:35;101895.44;;;-0.56;100.00
56392;BME280;42289;53.582;9.714;2022-12-04T03:14:10;101891.06;;;-0.60;100.00
56392;BME280;42289;53.582;9.714;2022-12-04T03:16:39;101890.94;;;-0.65;100.00
56392;BME280;42289;53.582;9.714;2022-12-04T03:19:09;101894.44;;;-0.61;100.00
56392;BME280;42289;53.582;9.714;2022-12-04T03:21:40;101890.25;;;-0.59;100.00
56392;BME280;42289;53.582;9.714;2022-12-04T03:24:12;101888.53;;;-0.59;100.00
56392;BME280;42289;53.582;9.714;2022-12-04T03:26:43;101891.53;;;-0.42;100.00
56392;BME280;42289;53.582;9.714;2022-12-04T03:29:14;101892.09;;;-0.54;100.00
56392;BME280;42289;53.582;9.714;2022-12-04T03:31:45;101887.44;;;-0.35;100.00
56392;BME280;42289;53.582;9.714;2022-12-04T03:34:20;101885.41;;;-0.48;100.00
56392;BME280;42289;53.582;9.714;2022-12-04T03:36:54;101893.91;;;-0.48;100.00
56392;BME280;42289;53.582;9.714;2022-12-04T03:39:23;101887.16;;;-0.46;100.00
56392;BME280;42289;53.582;9.714;2022-12-04T03:41:55;101889.56;;;-0.52;100.00
56392;BME280;42289;53.582;9.714;2022-12-04T03:44:28;101886.97;;;-0.54;100.00
56392;BME280;42289;53.582;9.714;2022-12-04T03:47:03;101893.00;;;-0.50;100.00
56392;BME280;42289;53.582;9.714;2022-12-04T03:49:38;101881.03;;;-0.53;100.00
56392;BME280;42289;53.582;9.714;2022-12-04T03:52:11;101887.91;;;-0.50;100.00
56392;BME280;42289;53.582;9.714;2022-12-04T03:54:43;101882.94;;;-0.44;100.00
56392;BME280;42289;53.582;9.714;2022-12-04T03:57:14;101876.84;;;-0.49;100.00
56392;BME280;42289;53.582;9.714;2022-12-04T03:59:47;101875.88;;;-0.54;100.00
56392;BME280;42289;53.582;9.714;2022-12-04T04:02:18;101872.53;;;-0.52;100.00
56392;BME280;42289;53.582;9.714;2022-12-04T04:04:50;101875.13;;;-0.50;100.00
56392;BME280;42289;53.582;9.714;2022-12-04T04:07:20;101867.41;;;-0.53;100.00
56392;BME280;42289;53.582;9.714;2022-12-04T04:09:55;101869.91;;;-0.55;100.00
56392;BME280;42289;53.582;9.714;2022-12-04T04:12:26;101868.38;;;-0.48;100.00
56392;BME280;42289;53.582;9.714;2022-12-04T04:14:59;101872.63;;;-0.48;100.00
56392;BME280;42289;53.582;9.714;2022-12-04T04:17:46;101874.47;;;-0.43;100.00
56392;BME280;42289;53.582;9.714;2022-12-04T04:20:32;101875.19;;;-0.48;100.00
56392;BME280;42289;53.582;9.714;2022-12-04T04:23:19;101864.06;;;-0.51;100.00
56392;BME280;42289;53.582;9.714;2022-12-04T04:26:05;101870.00;;;-0.50;100.00
56392;BME280;42289;53.582;9.714;2022-12-04T04:28:34;101865.75;;;-0.51;100.00
56392;BME280;42289;53.582;9.714;2022-12-04T04:31:07;101868.22;;;-0.54;100.00
56392;BME280;42289;53.582;9.714;2022-12-04T04:33:46;101865.88;;;-0.45;100.00
56392;BME280;42289;53.582;9.714;2022-12-04T04:36:17;101867.41;;;-0.53;100.00
56392;BME280;42289;53.582;9.714;2022-12-04T04:38:54;101869.91;;;-0.55;100.00
56392;BME280;42289;53.582;9.714;2022-12-04T04:41:28;101868.28;;;-0.53;100.00
56392;BME280;42289;53.582;9.714;2022-12-04T04:44:04;101867.44;;;-0.52;100.00
56392;BME280;42289;53.582;9.714;2022-12-04T04:46:40;101865.09;;;-0.42;100.00
56392;BME280;42289;53.582;9.714;2022-12-04T04:49:09;101865.81;;;-0.48;100.00
56392;BME280;42289;53.582;9.714;2022-12-04T04:51:37;101872.53;;;-0.52;100.00
56392;BME280;42289;53.582;9.714;2022-12-04T04:54:07;101872.56;;;-0.50;100.00
56392;BME280;42289;53.582;9.714;2022-12-04T04:56:39;101870.84;;;-0.53;100.00
56392;BME280;42289;53.582;9.714;2022-12-04T04:59:06;101872.69;;;-0.45;100.00
56392;BME280;42289;53.582;9.714;2022-12-04T05:01:32;101869.97;;;-0.52;100.00
56392;BME280;42289;53.582;9.714;2022-12-04T05:04:01;101868.53;;;-0.42;100.00
56392;BME280;42289;53.582;9.714;2022-12-04T05:06:28;101877.69;;;-0.50;100.00
56392;BME280;42289;53.582;9.714;2022-12-04T05:08:54;101876.66;;;-0.57;100.00
56392;BME280;42289;53.582;9.714;2022-12-04T05:11:21;101877.06;;;-0.41;100.00
56392;BME280;42289;53.582;9.714;2022-12-04T05:13:47;101887.81;;;-0.53;100.00
56392;BME280;42289;53.582;9.714;2022-12-04T05:16:14;101878.34;;;-0.59;100.00
56392;BME280;42289;53.582;9.714;2022-12-04T05:18:42;101882.88;;;-0.47;100.00
56392;BME280;42289;53.582;9.714;2022-12-04T05:21:30;101883.88;;;-0.42;100.00
56392;BME280;42289;53.582;9.714;2022-12-04T05:23:55;101887.06;;;-0.49;100.00
56392;BME280;42289;53.582;9.714;2022-12-04T05:26:22;101882.06;;;-0.46;100.00
56392;BME280;42289;53.582;9.714;2022-12-04T05:28:49;101877.94;;;-0.39;100.00
56392;BME280;42289;53.582;9.714;2022-12-04T05:31:15;101878.66;;;-0.45;100.00
56392;BME280;42289;53.582;9.714;2022-12-04T05:33:42;101876.06;;;-0.46;100.00
56392;BME280;42289;53.582;9.714;2022-12-04T05:36:09;101875.31;;;-0.42;100.00
56392;BME280;42289;53.582;9.714;2022-12-04T05:38:37;101872.03;;;-0.37;100.00
56392;BME280;42289;53.582;9.714;2022-12-04T05:41:05;101862.47;;;-0.45;100.00
56392;BME280;42289;53.582;9.714;2022-12-04T05:43:32;101859.88;;;-0.48;100.00
56392;BME280;42289;53.582;9.714;2022-12-04T05:45:59;101869.34;;;-0.43;100.00
56392;BME280;42289;53.582;9.714;2022-12-04T05:48:26;101864.13;;;-0.47;100.00
56392;BME280;42289;53.582;9.714;2022-12-04T05:50:52;101859.13;;;-0.43;100.00
56392;BME280;42289;53.582;9.714;2022-12-04T05:53:19;101863.31;;;-0.46;100.00
56392;BME280;42289;53.582;9.714;2022-12-04T05:55:54;101866.94;;;-0.37;100.00
56392;BME280;42289;53.582;9.714;2022-12-04T05:58:21;101882.13;;;-0.43;100.00
56392;BME280;42289;53.582;9.714;2022-12-04T06:00:47;101873.59;;;-0.43;100.00
56392;BME280;42289;53.582;9.714;2022-12-04T06:03:14;101870.34;;;-0.38;100.00
56392;BME280;42289;53.582;9.714;2022-12-04T06:05:40;101866.09;;;-0.36;100.00
56392;BME280;42289;53.582;9.714;2022-12-04T06:08:06;101867.13;;;-0.29;100.00
56392;BME280;42289;53.582;9.714;2022-12-04T06:10:33;101861.94;;;-0.32;100.00
56392;BME280;42289;53.582;9.714;2022-12-04T06:13:01;101861.63;;;-0.46;100.00
56392;BME280;42289;53.582;9.714;2022-12-04T06:15:27;101860.00;;;-0.42;100.00
56392;BME280;42289;53.582;9.714;2022-12-04T06:17:53;101865.03;;;-0.45;100.00
56392;BME280;42289;53.582;9.714;2022-12-04T06:20:20;101867.09;;;-0.30;100.00
56392;BME280;42289;53.582;9.714;2022-12-04T06:22:46;101877.06;;;-0.41;100.00
56392;BME280;42289;53.582;9.714;2022-12-04T06:25:13;101867.03;;;-0.33;100.00
56392;BME280;42289;53.582;9.714;2022-12-04T06:27:39;101877.09;;;-0.40;100.00
56392;BME280;42289;53.582;9.714;2022-12-04T06:30:09;101885.47;;;-0.45;100.00
56392;BME280;42289;53.582;9.714;2022-12-04T06:32:35;101885.47;;;-0.45;100.00
56392;BME280;42289;53.582;9.714;2022-12-04T06:35:02;101885.69;;;-0.36;100.00
56392;BME280;42289;53.582;9.714;2022-12-04T06:37:29;101881.31;;;-0.42;100.00
56392;BME280;42289;53.582;9.714;2022-12-04T06:39:55;101884.16;;;-0.29;100.00
56392;BME280;42289;53.582;9.714;2022-12-04T06:42:21;101880.69;;;-0.31;100.00
56392;BME280;42289;53.582;9.714;2022-12-04T06:44:48;101882.94;;;-0.44;100.00
56392;BME280;42289;53.582;9.714;2022-12-04T06:47:16;101885.81;;;-0.30;100.00
56392;BME280;42289;53.582;9.714;2022-12-04T06:49:42;101881.44;;;-0.36;100.00
56392;BME280;42289;53.582;9.714;2022-12-04T06:52:10;101876.72;;;-0.19;100.00
56392;BME280;42289;53.582;9.714;2022-12-04T06:54:36;101883.97;;;-0.37;100.00
56392;BME280;42289;53.582;9.714;2022-12-04T06:57:03;101884.22;;;-0.26;100.00
56392;BME280;42289;53.582;9.714;2022-12-04T06:59:29;101887.38;;;-0.37;100.00
56392;BME280;42289;53.582;9.714;2022-12-04T07:01:57;101890.59;;;-0.44;100.00
56392;BME280;42289;53.582;9.714;2022-12-04T07:04:25;101887.56;;;-0.29;100.00
56392;BME280;42289;53.582;9.714;2022-12-04T07:06:51;101894.44;;;-0.26;100.00
56392;BME280;42289;53.582;9.714;2022-12-04T07:09:18;101884.00;;;-0.36;100.00
56392;BME280;42289;53.582;9.714;2022-12-04T07:11:45;101883.94;;;-0.39;100.00
56392;BME280;42289;53.582;9.714;2022-12-04T07:14:12;101886.50;;;-0.37;100.00
56392;BME280;42289;53.582;9.714;2022-12-04T07:16:40;101883.91;;;-0.40;100.00
56392;BME280;42289;53.582;9.714;2022-12-04T07:19:06;101890.09;;;-0.29;100.00
56392;BME280;42289;53.582;9.714;2022-12-04T07:21:37;101887.56;;;-0.29;100.00
56392;BME280;42289;53.582;9.714;2022-12-04T07:24:08;101889.06;;;-0.37;100.00
56392;BME280;42289;53.582;9.714;2022-12-04T07:26:39;101894.41;;;-0.28;100.00
56392;BME280;42289;53.582;9.714;2022-12-04T07:29:06;101895.22;;;-0.29;100.00
56392;BME280;42289;53.582;9.714;2022-12-04T07:31:34;101889.38;;;-0.23;100.00
56392;BME280;42289;53.582;9.714;2022-12-04T07:34:00;101892.88;;;-0.20;100.00
56392;BME280;42289;53.582;9.714;2022-12-04T07:36:27;101897.97;;;-0.21;100.00
56392;BME280;42289;53.582;9.714;2022-12-04T07:38:55;101892.88;;;-0.20;100.00
56392;BME280;42289;53.582;9.714;2022-12-04T07:41:21;101891.31;;;-0.14;100.00
56392;BME280;42289;53.582;9.714;2022-12-04T07:43:48;101898.84;;;-0.19;100.00
56392;BME280;42289;53.582;9.714;2022-12-04T07:46:17;101894.59;;;-0.20;100.00
56392;BME280;42289;53.582;9.714;2022-12-04T07:48:44;101888.56;;;-0.22;100.00
56392;BME280;42289;53.582;9.714;2022-12-04T07:56:57;101892.41;;;-0.03;100.00
56392;BME280;42289;53.582;9.714;2022-12-04T07:59:23;101890.34;;;-0.18;100.00
56392;BME280;42289;53.582;9.714;2022-12-04T08:01:50;101882.88;;;-0.10;100.00
56392;BME280;42289;53.582;9.714;2022-12-04T08:04:16;101878.81;;;-0.01;100.00
56392;BME280;42289;53.582;9.714;2022-12-04T08:06:42;101879.63;;;-0.03;100.00
56392;BME280;42289;53.582;9.714;2022-12-04T08:09:09;101882.16;;;-0.05;100.00
56392;BME280;42289;53.582;9.714;2022-12-04T08:11:35;101892.19;;;-0.12;100.00
56392;BME280;42289;53.582;9.714;2022-12-04T08:14:04;101882.84;;;-0.12;100.00
56392;BME280;42289;53.582;9.714;2022-12-04T08:16:33;101883.09;;;-0.01;100.00
56392;BME280;42289;53.582;9.714;2022-12-04T08:18:59;101890.78;;;0.01;100.00
56392;BME280;42289;53.582;9.714;2022-12-04T08:21:29;101885.53;;;-0.06;100.00
56392;BME280;42289;53.582;9.714;2022-12-04T08:23:56;101886.31;;;-0.08;100.00
56392;BME280;42289;53.582;9.714;2022-12-04T08:26:25;101884.09;;;0.06;100.00
56392;BME280;42289;53.582;9.714;2022-12-04T08:28:52;101882.72;;;0.22;100.00
56392;BME280;42289;53.582;9.714;2022-12-04T08:31:22;101884.06;;;0.04;100.00
56392;BME280;42289;53.582;9.714;2022-12-04T08:33:50;101891.66;;;0.03;100.00
56392;BME280;42289;53.582;9.714;2022-12-04T08:36:19;101891.81;;;0.09;100.00
56392;BME280;42289;53.582;9.714;2022-12-04T08:38:47;101895.19;;;0.08;100.00
56392;BME280;42289;53.582;9.714;2022-12-04T08:41:16;101897.06;;;0.15;100.00
56392;BME280;42289;53.582;9.714;2022-12-04T08:43:43;101893.69;;;0.17;100.00
56392;BME280;42289;53.582;9.714;2022-12-04T08:46:11;101894.59;;;0.20;100.00
56392;BME280;42289;53.582;9.714;2022-12-04T08:48:39;101888.00;;;0.31;100.00
56392;BME280;42289;53.582;9.714;2022-12-04T08:51:09;101895.03;;;0.40;100.00
56392;BME280;42289;53.582;9.714;2022-12-04T08:53:37;101898.56;;;0.45;100.00
56392;BME280;42289;53.582;9.714;2022-12-04T08:56:04;101880.34;;;0.31;100.00
56392;BME280;42289;53.582;9.714;2022-12-04T08:58:31;101887.41;;;0.43;100.00
56392;BME280;42289;53.582;9.714;2022-12-04T09:01:02;101881.31;;;0.36;100.00
56392;BME280;42289;53.582;9.714;2022-12-04T09:03:29;101884.88;;;0.44;100.00
56392;BME280;42289;53.582;9.714;2022-12-04T09:05:59;101890.78;;;0.40;100.00
56392;BME280;42289;53.582;9.714;2022-12-04T09:08:26;101880.66;;;0.45;100.00
56392;BME280;42289;53.582;9.714;2022-12-04T09:10:52;101876.34;;;0.44;100.00
56392;BME280;42289;53.582;9.714;2022-12-04T09:13:18;101881.63;;;0.50;100.00
56392;BME280;42289;53.582;9.714;2022-12-04T09:15:45;101882.69;;;0.61;100.00
56392;BME280;42289;53.582;9.714;2022-12-04T09:18:11;101873.31;;;0.63;100.00
56392;BME280;42289;53.582;9.714;2022-12-04T09:20:38;101876.91;;;0.72;100.00
56392;BME280;42289;53.582;9.714;2022-12-04T09:23:06;101883.75;;;0.73;100.00
56392;BME280;42289;53.582;9.714;2022-12-04T09:25:34;101875.06;;;0.66;100.00
56392;BME280;42289;53.582;9.714;2022-12-04T09:28:00;101870.31;;;0.84;100.00
56392;BME280;42289;53.582;9.714;2022-12-04T09:30:27;101872.81;;;0.80;100.00
56392;BME280;42289;53.582;9.714;2022-12-04T09:32:53;101876.13;;;0.76;100.00
56392;BME280;42289;53.582;9.714;2022-12-04T09:35:19;101870.28;;;0.83;100.00
56392;BME280;42289;53.582;9.714;2022-12-04T09:37:46;101878.78;;;0.82;100.00
56392;BME280;42289;53.582;9.714;2022-12-04T09:40:21;101866.91;;;0.84;100.00
56392;BME280;42289;53.582;9.714;2022-12-04T09:42:54;101863.53;;;0.85;100.00
56392;BME280;42289;53.582;9.714;2022-12-04T09:45:27;101861.09;;;0.94;100.00
56392;BME280;42289;53.582;9.714;2022-12-04T09:47:55;101870.41;;;0.89;100.00
56392;BME280;42289;53.582;9.714;2022-12-04T09:50:25;101865.44;;;0.98;100.00
56392;BME280;42289;53.582;9.714;2022-12-04T09:52:56;101857.94;;;1.09;100.00
56392;BME280;42289;53.582;9.714;2022-12-04T09:55:28;101860.66;;;1.18;100.00
56392;BME280;42289;53.582;9.714;2022-12-04T09:57:59;101858.72;;;1.04;100.00
56392;BME280;42289;53.582;9.714;2022-12-04T10:00:28;101856.28;;;1.10;100.00
56392;BME280;42289;53.582;9.714;2022-12-04T10:02:59;101854.66;;;1.15;100.00
56392;BME280;42289;53.582;9.714;2022-12-04T10:05:37;101849.53;;;1.15;100.00
56392;BME280;42289;53.582;9.714;2022-12-04T10:08:11;101847.22;;;1.30;100.00
56392;BME280;42289;53.582;9.714;2022-12-04T10:10:46;101849.78;;;1.32;100.00
56392;BME280;42289;53.582;9.714;2022-12-04T10:13:27;101847.31;;;1.37;100.00
56392;BME280;42289;53.582;9.714;2022-12-04T10:16:05;101855.06;;;1.41;100.00
56392;BME280;42289;53.582;9.714;2022-12-04T10:18:43;101847.53;;;1.49;100.00
56392;BME280;42289;53.582;9.714;2022-12-04T10:21:30;101843.97;;;1.41;100.00
56392;BME280;42289;53.582;9.714;2022-12-04T10:24:08;101836.28;;;1.39;100.00
56392;BME280;42289;53.582;9.714;2022-12-04T10:26:42;101834.75;;;1.54;100.00
56392;BME280;42289;53.582;9.714;2022-12-04T10:29:17;101845.09;;;1.57;100.00
56392;BME280;42289;53.582;9.714;2022-12-04T10:31:45;101841.00;;;1.70;100.00
56392;BME280;42289;53.582;9.714;2022-12-04T10:34:15;101848.69;;;1.70;100.00
56392;BME280;42289;53.582;9.714;2022-12-04T10:36:48;101842.53;;;1.58;100.00
56392;BME280;42289;53.582;9.714;2022-12-04T10:39:19;101840.94;;;1.65;100.00
56392;BME280;42289;53.582;9.714;2022-12-04T10:41:54;101839.31;;;1.72;100.00
56392;BME280;42289;53.582;9.714;2022-12-04T10:44:23;101849.66;;;1.78;100.00
56392;BME280;42289;53.582;9.714;2022-12-04T10:46:54;101844.50;;;1.76;100.00
56392;BME280;42289;53.582;9.714;2022-12-04T10:49:23;101847.00;;;1.70;100.00
56392;BME280;42289;53.582;9.714;2022-12-04T10:51:52;101845.19;;;1.66;100.00
56392;BME280;42289;53.582;9.714;2022-12-04T10:54:21;101841.91;;;1.73;100.00
56392;BME280;42289;53.582;9.714;2022-12-04T10:56:54;101836.75;;;1.70;100.00
56392;BME280;42289;53.582;9.714;2022-12-04T10:59:22;101833.38;;;1.74;100.00
56392;BME280;42289;53.582;9.714;2022-12-04T11:01:49;101832.78;;;1.94;100.00
56392;BME280;42289;53.582;9.714;2022-12-04T11:04:23;101829.88;;;1.69;100.00
56392;BME280;42289;53.582;9.714;2022-12-04T11:06:59;101830.75;;;1.73;100.00
56392;BME280;42289;53.582;9.714;2022-12-04T11:09:27;101826.53;;;1.73;100.00
56392;BME280;42289;53.582;9.714;2022-12-04T11:12:04;101831.63;;;1.72;100.00
56392;BME280;42289;53.582;9.714;2022-12-04T11:14:31;101830.06;;;1.83;100.00
56392;BME280;42289;53.582;9.714;2022-12-04T11:17:00;101829.91;;;1.72;100.00
56392;BME280;42289;53.582;9.714;2022-12-04T11:19:29;101835.94;;;1.74;100.00
56392;BME280;42289;53.582;9.714;2022-12-04T11:21:58;101835.06;;;1.74;100.00
56392;BME280;42289;53.582;9.714;2022-12-04T11:24:28;101830.75;;;1.71;100.00
56392;BME280;42289;53.582;9.714;2022-12-04T11:26:57;101825.63;;;1.71;100.00
56392;BME280;42289;53.582;9.714;2022-12-04T11:29:28;101832.50;;;1.74;100.00
56392;BME280;42289;53.582;9.714;2022-12-04T11:31:56;101824.81;;;1.75;100.00
56392;BME280;42289;53.582;9.714;2022-12-04T11:34:28;101819.84;;;1.84;100.00
56392;BME280;42289;53.582;9.714;2022-12-04T11:36:57;101813.75;;;1.78;100.00
56392;BME280;42289;53.582;9.714;2022-12-04T11:39:28;101822.34;;;1.81;100.00
56392;BME280;42289;53.582;9.714;2022-12-04T11:42:02;101818.09;;;1.82;100.00
56392;BME280;42289;53.582;9.714;2022-12-04T11:44:31;101813.75;;;1.78;100.00
56392;BME280;42289;53.582;9.714;2022-12-04T11:47:00;101811.25;;;1.81;100.00
56392;BME280;42289;53.582;9.714;2022-12-04T11:49:29;101807.00;;;1.84;100.00
56392;BME280;42289;53.582;9.714;2022-12-04T11:52:05;101802.84;;;1.93;100.00
56392;BME280;42289;53.582;9.714;2022-12-04T11:54:44;101805.38;;;1.88;100.00
56392;BME280;42289;53.582;9.714;2022-12-04T11:57:22;101805.41;;;1.93;100.00
56392;BME280;42289;53.582;9.714;2022-12-04T11:59:59;101805.38;;;1.88;100.00
56392;BME280;42289;53.582;9.714;2022-12-04T12:02:45;101801.97;;;1.91;100.00
56392;BME280;42289;53.582;9.714;2022-12-04T12:05:34;101801.97;;;1.89;100.00
56392;BME280;42289;53.582;9.714;2022-12-04T12:08:11;101796.91;;;1.97;100.00
56392;BME280;42289;53.582;9.714;2022-12-04T12:10:45;101786.59;;;1.91;100.00
56392;BME280;42289;53.582;9.714;2022-12-04T12:13:23;101790.09;;;1.97;100.00
56392;BME280;42289;53.582;9.714;2022-12-04T12:15:59;101793.59;;;2.04;100.00
56392;BME280;42289;53.582;9.714;2022-12-04T12:18:42;101791.91;;;2.08;100.00
56392;BME280;42289;53.582;9.714;2022-12-04T12:21:15;101785.00;;;1.99;100.00
56392;BME280;42289;53.582;9.714;2022-12-04T12:23:52;101782.56;;;2.10;100.00
56392;BME280;42289;53.582;9.714;2022-12-04T12:26:32;101797.03;;;2.05;100.00
56392;BME280;42289;53.582;9.714;2022-12-04T12:29:12;101793.66;;;2.09;100.00
56392;BME280;42289;53.582;9.714;2022-12-04T12:31:57;101793.66;;;2.10;100.00
56392;BME280;42289;53.582;9.714;2022-12-04T12:34:32;101795.34;;;2.07;100.00
56392;BME280;42289;53.582;9.714;2022-12-04T12:37:06;101802.13;;;2.03;100.00
56392;BME280;42289;53.582;9.714;2022-12-04T12:39:37;101791.09;;;2.09;100.00
56392;BME280;42289;53.582;9.714;2022-12-04T12:42:06;101795.38;;;2.10;100.00
56392;BME280;42289;53.582;9.714;2022-12-04T12:44:46;101795.41;;;2.13;100.00
56392;BME280;42289;53.582;9.714;2022-12-04T12:47:16;101793.75;;;2.15;100.00
56392;BME280;42289;53.582;9.714;2022-12-04T12:49:46;101792.97;;;2.24;100.00
56392;BME280;42289;53.582;9.714;2022-12-04T12:52:21;101785.16;;;2.14;100.00
56392;BME280;42289;53.582;9.714;2022-12-04T12:54:55;101781.78;;;2.17;100.00
56392;BME280;42289;53.582;9.714;2022-12-04T12:57:28;101779.22;;;2.18;100.00
56392;BME280;42289;53.582;9.714;2022-12-04T13:00:03;101781.78;;;2.17;100.00
56392;BME280;42289;53.582;9.714;2022-12-04T13:02:35;101779.19;;;2.15;100.00
56392;BME280;42289;53.582;9.714;2022-12-04T13:05:06;101773.28;;;2.23;100.00